createdAt,value
2022-08-05T00:12:17.024Z,36.65
2022-08-05T00:14:44.540Z,35.44
2022-08-05T00:17:18.599Z,35.83
2022-08-05T00:20:02.514Z,35.21
2022-08-05T00:22:29.741Z,35.97
2022-08-05T00:24:57.638Z,35.78
2022-08-05T00:27:28.453Z,35.41
2022-08-05T00:43:20.646Z,36.11
2022-08-05T00:45:47.971Z,36.99
2022-08-05T00:48:17.710Z,36.10
2022-08-05T00:51:50.458Z,37.53
2022-08-05T00:54:02.294Z,35.60
2022-08-05T01:12:18.727Z,36.04
2022-08-05T01:15:18.148Z,35.74
2022-08-05T01:18:03.518Z,36.93
2022-08-05T01:20:34.745Z,36.54
2022-08-05T01:23:23.727Z,37.20
2022-08-05T01:26:21.788Z,36.08
2022-08-05T01:48:39.122Z,36.44
2022-08-05T01:51:12.078Z,37.18
2022-08-05T01:53:57.723Z,36.44
2022-08-05T01:58:12.557Z,38.18
2022-08-05T02:13:53.302Z,37.29
2022-08-05T02:16:39.668Z,36.54
2022-08-05T02:19:17.697Z,36.76
2022-08-05T02:21:51.514Z,36.89
2022-08-05T02:24:23.409Z,37.41
2022-08-05T02:26:55.139Z,38.21
2022-08-05T02:43:14.074Z,38.28
2022-08-05T02:46:20.235Z,38.55
2022-08-05T02:49:35.877Z,38.38
2022-08-05T02:52:08.628Z,39.58
2022-08-05T02:54:37.590Z,40.38
2022-08-05T02:58:09.884Z,40.65
2022-08-05T02:59:57.644Z,39.76
2022-08-05T03:02:31.718Z,40.54
2022-08-05T03:04:59.409Z,40.46
2022-08-05T03:08:00.526Z,40.19
2022-08-05T03:10:21.961Z,40.27
2022-08-05T03:12:52.649Z,40.40
2022-08-05T03:15:20.808Z,40.64
2022-08-05T03:17:50.504Z,39.98
2022-08-05T03:58:37.974Z,41.27
2022-08-05T04:01:11.216Z,41.17
2022-08-05T04:03:42.472Z,41.14
2022-08-05T04:06:29.807Z,42.49
2022-08-05T04:08:56.964Z,42.02
2022-08-05T04:11:24.432Z,42.01
2022-08-05T04:28:17.216Z,43.34
2022-08-05T04:30:44.399Z,43.73
2022-08-05T04:33:11.985Z,43.93
2022-08-05T04:36:15.865Z,43.95
2022-08-05T04:38:39.586Z,44.04
2022-08-05T04:41:07.520Z,43.83
2022-08-05T04:59:38.443Z,44.02
2022-08-05T05:02:36.795Z,45.01
2022-08-05T05:06:38.918Z,43.02
2022-08-05T05:08:42.968Z,42.82
2022-08-05T05:11:10.699Z,41.83
2022-08-05T05:30:03.301Z,37.58
2022-08-05T05:32:26.628Z,37.49
2022-08-05T05:34:53.321Z,36.93
2022-08-05T05:37:20.232Z,36.69
2022-08-05T05:39:55.731Z,36.47
2022-08-05T05:42:23.191Z,36.22
2022-08-05T05:44:50.664Z,35.84
2022-08-05T06:00:48.084Z,35.65
2022-08-05T06:03:40.096Z,35.16
2022-08-05T06:14:44.544Z,34.04
2022-08-05T06:17:22.514Z,33.42
2022-08-05T06:19:57.150Z,33.58
2022-08-05T06:22:33.573Z,32.44
2022-08-05T06:25:01.414Z,31.93
2022-08-05T06:28:12.510Z,32.13
2022-08-05T06:33:10.744Z,31.65
2022-08-05T06:36:08.245Z,31.91
2022-08-05T06:38:36.067Z,31.75
2022-08-05T06:41:04.471Z,30.94
2022-08-05T06:59:30.077Z,29.46
2022-08-05T07:02:06.511Z,29.41
2022-08-05T07:04:33.277Z,28.99
2022-08-05T07:07:00.014Z,28.71
2022-08-05T07:09:26.631Z,28.81
2022-08-05T07:12:00.592Z,28.96
2022-08-05T07:14:46.030Z,28.83
2022-08-05T07:17:59.792Z,28.90
2022-08-05T07:22:47.853Z,27.24
2022-08-05T07:25:54.250Z,27.69
2022-08-05T07:28:05.896Z,27.07
2022-08-05T07:30:39.240Z,27.14
2022-08-05T07:33:09.417Z,27.62
2022-08-05T07:36:02.809Z,26.87
2022-08-05T07:38:33.446Z,27.01
2022-08-05T07:42:08.289Z,27.16
2022-08-05T07:44:06.312Z,26.80
2022-08-05T07:46:41.382Z,26.55
2022-08-05T07:49:14.962Z,26.65
2022-08-05T07:51:53.405Z,26.59
2022-08-05T07:54:35.826Z,26.66
2022-08-05T07:57:17.702Z,26.54
2022-08-05T07:59:50.464Z,26.23
2022-08-05T08:02:26.819Z,25.97
2022-08-05T08:04:58.803Z,25.88
2022-08-05T08:07:28.472Z,26.14
2022-08-05T08:09:55.682Z,26.06
2022-08-05T08:12:35.259Z,26.09
2022-08-05T08:15:05.477Z,25.86
2022-08-05T08:17:52.796Z,25.81
2022-08-05T08:21:00.107Z,25.39
2022-08-05T08:23:59.951Z,25.31
2022-08-05T08:25:59.961Z,25.22
2022-08-05T08:28:37.106Z,25.04
2022-08-05T08:31:17.508Z,25.28
2022-08-05T08:42:34.477Z,24.53
2022-08-05T08:45:22.543Z,24.90
2022-08-05T08:48:07.495Z,24.24
2022-08-05T08:51:03.296Z,24.81
2022-08-05T08:53:36.704Z,24.53
2022-08-05T08:56:06.142Z,23.98
2022-08-05T08:58:36.907Z,24.14
2022-08-05T09:01:07.530Z,23.77
2022-08-05T09:03:40.332Z,23.97
2022-08-05T09:06:11.107Z,23.88
2022-08-05T09:08:40.205Z,22.94
2022-08-05T09:11:12.129Z,23.05
2022-08-05T09:14:00.680Z,23.06
2022-08-05T09:16:28.930Z,22.55
2022-08-05T09:18:56.560Z,22.17
2022-08-05T09:22:22.291Z,22.72
2022-08-05T09:29:44.724Z,23.03
2022-08-05T09:32:40.726Z,22.85
2022-08-05T09:35:26.429Z,22.48
2022-08-05T09:38:11.991Z,22.27
2022-08-05T09:40:52.485Z,22.37
2022-08-05T09:43:40.526Z,22.49
2022-08-05T09:46:31.272Z,22.41
2022-08-05T09:49:07.858Z,21.51
2022-08-05T09:51:49.649Z,21.62
2022-08-05T09:54:21.125Z,21.68
2022-08-05T09:56:56.024Z,21.92
2022-08-05T09:59:27.694Z,21.58
2022-08-05T10:01:58.167Z,21.20
2022-08-05T10:04:35.481Z,21.28
2022-08-05T10:07:20.389Z,21.82
2022-08-05T10:10:04.192Z,21.58
2022-08-05T10:12:53.770Z,21.21
2022-08-05T10:15:27.958Z,21.19
2022-08-05T10:18:12.972Z,22.11
2022-08-05T10:20:49.458Z,20.77
2022-08-05T10:23:55.373Z,20.62
2022-08-05T10:26:15.009Z,20.42
2022-08-05T10:28:45.348Z,20.90
2022-08-05T10:32:47.342Z,19.64
2022-08-05T10:36:38.108Z,20.17
2022-08-05T10:40:03.254Z,20.41
2022-08-05T10:42:32.427Z,20.11
2022-08-05T10:45:01.563Z,19.87
2022-08-05T10:47:33.423Z,19.84
2022-08-05T10:50:32.108Z,20.37
2022-08-05T10:52:58.767Z,20.15
2022-08-05T10:55:26.574Z,20.07
2022-08-05T10:58:11.485Z,20.27
2022-08-05T11:00:42.248Z,20.42
2022-08-05T11:03:25.258Z,19.87
2022-08-05T11:06:15.150Z,19.77
2022-08-05T11:09:10.890Z,19.99
2022-08-05T11:11:52.073Z,20.08
2022-08-05T11:14:49.361Z,19.65
2022-08-05T11:17:57.056Z,19.99
2022-08-05T11:20:33.552Z,23.31
2022-08-05T11:23:06.016Z,20.95
2022-08-05T11:26:04.344Z,19.54
2022-08-05T11:28:47.169Z,19.76
2022-08-05T11:31:19.531Z,19.82
2022-08-05T11:34:02.965Z,21.56
2022-08-05T11:36:44.698Z,19.98
2022-08-05T11:39:14.981Z,20.46
2022-08-05T11:42:01.741Z,19.67
2022-08-05T11:45:26.923Z,20.40
2022-08-05T11:48:15.602Z,19.81
2022-08-05T11:50:42.795Z,20.21
2022-08-05T11:53:09.901Z,19.49
2022-08-05T11:55:36.791Z,19.19
2022-08-05T11:58:09.175Z,20.05
2022-08-05T12:00:39.015Z,19.24
2022-08-05T12:03:29.284Z,19.47
2022-08-05T12:06:06.565Z,19.90
2022-08-05T12:11:20.477Z,19.88
2022-08-05T12:14:04.031Z,19.75
2022-08-05T12:16:38.571Z,19.28
2022-08-05T12:22:46.426Z,19.50
2022-08-05T12:25:14.274Z,19.38
2022-08-05T12:27:53.241Z,19.89
2022-08-05T12:30:23.269Z,19.43
2022-08-05T12:33:07.174Z,19.15
2022-08-05T12:35:45.559Z,18.11
2022-08-05T12:38:31.490Z,18.03
2022-08-05T12:40:59.195Z,18.29
2022-08-05T12:43:25.852Z,18.92
2022-08-05T12:45:58.926Z,18.51
2022-08-05T12:48:32.796Z,18.51
2022-08-05T12:52:10.949Z,18.46
2022-08-05T12:54:35.923Z,18.96
2022-08-05T12:57:23.280Z,18.31
2022-08-05T13:02:40.122Z,19.40
2022-08-05T13:05:08.290Z,18.91
2022-08-05T13:07:59.363Z,19.07
2022-08-05T13:10:26.738Z,19.53
2022-08-05T13:13:06.520Z,18.92
2022-08-05T13:15:41.464Z,19.28
2022-08-05T13:18:19.659Z,18.71
2022-08-05T13:20:49.212Z,18.28
2022-08-05T13:23:18.203Z,18.25
2022-08-05T13:25:59.468Z,19.03
2022-08-05T13:32:03.801Z,18.69
2022-08-05T13:34:31.326Z,18.40
2022-08-05T13:36:57.914Z,18.38
2022-08-05T13:40:14.207Z,18.35
2022-08-05T13:42:14.079Z,18.94
2022-08-05T13:44:45.031Z,19.00
2022-08-05T13:47:34.978Z,18.66
2022-08-05T13:50:06.786Z,19.19
2022-08-05T13:52:36.411Z,18.91
2022-08-05T13:55:08.003Z,19.38
2022-08-05T13:57:48.620Z,19.18
2022-08-05T14:00:18.518Z,19.19
2022-08-05T14:08:52.247Z,19.64
2022-08-05T14:11:20.965Z,19.90
2022-08-05T14:13:48.740Z,18.97
2022-08-05T14:16:21.905Z,19.02
2022-08-05T14:18:48.574Z,19.48
2022-08-05T14:22:08.877Z,19.28
2022-08-05T14:24:19.465Z,19.06
2022-08-05T14:26:56.607Z,18.83
2022-08-05T14:29:34.317Z,19.12
2022-08-05T14:32:12.427Z,18.44
2022-08-05T14:34:42.664Z,19.67
2022-08-05T14:37:47.300Z,19.38
2022-08-05T14:42:53.955Z,19.01
2022-08-05T14:45:22.514Z,19.66
2022-08-05T14:48:03.603Z,19.42
2022-08-05T14:50:33.040Z,19.13
2022-08-05T14:53:02.877Z,18.63
2022-08-05T14:55:39.868Z,19.45
2022-08-05T14:58:11.358Z,19.18
2022-08-05T15:00:58.761Z,19.42
2022-08-05T15:03:33.389Z,19.47
2022-08-05T15:06:08.331Z,19.55
2022-08-05T15:08:59.233Z,19.34
2022-08-05T15:12:01.441Z,19.82
2022-08-05T15:15:15.222Z,19.55
2022-08-05T15:17:45.770Z,19.51
2022-08-05T15:20:18.676Z,19.86
2022-08-05T15:22:54.017Z,19.27
2022-08-05T15:25:23.611Z,19.65
2022-08-05T15:28:08.221Z,18.96
2022-08-05T15:30:46.255Z,18.79
2022-08-05T15:34:05.113Z,18.95
2022-08-05T15:36:03.573Z,18.70
2022-08-05T15:38:35.479Z,18.78
2022-08-05T15:41:22.937Z,18.40
2022-08-05T15:43:49.908Z,18.72
2022-08-05T15:46:55.681Z,19.13
2022-08-05T15:49:58.582Z,19.33
2022-08-05T15:52:51.894Z,18.93
2022-08-05T15:55:15.595Z,19.62
2022-08-05T15:57:43.424Z,19.78
2022-08-05T16:00:12.308Z,19.64
2022-08-05T16:02:43.584Z,19.31
2022-08-05T16:05:30.289Z,19.64
2022-08-05T16:07:57.278Z,19.30
2022-08-05T16:10:25.266Z,19.86
2022-08-05T16:12:52.284Z,19.24
2022-08-05T16:15:20.483Z,19.92
2022-08-05T16:17:57.801Z,19.03
2022-08-05T16:21:05.149Z,19.35
2022-08-05T16:23:53.278Z,18.85
2022-08-05T16:26:26.605Z,18.76
2022-08-05T16:28:54.621Z,18.92
2022-08-05T16:31:21.864Z,19.78
2022-08-05T16:33:49.018Z,19.95
2022-08-05T16:36:20.520Z,19.62
2022-08-05T16:38:58.307Z,19.68
2022-08-05T16:42:13.842Z,19.49
2022-08-05T16:44:16.987Z,20.06
2022-08-05T16:46:55.754Z,19.86
2022-08-05T16:49:23.435Z,19.65
2022-08-05T16:51:51.183Z,19.79
2022-08-05T16:54:55.210Z,19.94
2022-08-05T16:57:52.997Z,19.90
2022-08-05T17:00:33.994Z,19.68
2022-08-05T17:03:09.225Z,19.94
2022-08-05T17:05:50.192Z,20.14
2022-08-05T17:08:52.135Z,20.47
2022-08-05T17:11:08.872Z,20.64
2022-08-05T17:13:46.155Z,20.64
2022-08-05T17:16:29.750Z,20.51
2022-08-05T17:18:57.053Z,20.26
2022-08-05T17:21:23.936Z,20.05
2022-08-05T17:24:05.019Z,20.36
2022-08-05T17:26:38.354Z,21.00
2022-08-05T17:29:33.731Z,20.99
2022-08-05T17:32:44.138Z,20.72
2022-08-05T17:35:12.388Z,21.97
2022-08-05T17:37:45.149Z,23.01
2022-08-05T17:40:17.477Z,23.35
2022-08-05T17:42:51.388Z,23.50
2022-08-05T17:45:22.649Z,23.52
2022-08-05T17:48:04.829Z,23.92
2022-08-05T17:50:31.578Z,24.32
2022-08-05T17:53:04.707Z,24.68
2022-08-05T17:55:37.709Z,24.88
2022-08-05T17:58:12.439Z,24.85
2022-08-05T18:00:47.805Z,24.99
2022-08-05T18:04:03.889Z,25.86
2022-08-05T18:07:00.407Z,26.36
2022-08-05T18:09:59.476Z,26.53
2022-08-05T18:12:15.026Z,27.37
2022-08-05T18:14:49.226Z,27.41
2022-08-05T18:17:59.491Z,27.47
2022-08-05T18:20:05.603Z,28.01
2022-08-05T18:22:55.044Z,28.20
2022-08-05T18:25:25.165Z,28.71
2022-08-05T18:27:59.303Z,28.42
2022-08-05T18:30:29.255Z,28.66
2022-08-05T18:33:00.815Z,28.89
2022-08-05T18:36:00.640Z,29.58
2022-08-05T18:38:52.452Z,30.02
2022-08-05T18:41:55.981Z,30.17
2022-08-05T18:44:35.204Z,29.59
2022-08-05T18:47:15.781Z,29.92
2022-08-05T18:50:00.926Z,30.52
2022-08-05T18:52:35.717Z,31.22
2022-08-05T18:55:06.288Z,31.89
2022-08-05T18:57:52.710Z,31.60
2022-08-05T19:00:21.053Z,30.97
2022-08-05T19:02:55.557Z,30.59
2022-08-05T19:06:13.536Z,30.57
2022-08-05T19:08:12.192Z,31.64
2022-08-05T19:10:40.740Z,32.41
2022-08-05T19:13:36.200Z,32.67
2022-08-05T19:16:25.509Z,32.23
2022-08-05T19:18:57.163Z,32.12
2022-08-05T19:21:24.159Z,32.01
2022-08-05T19:24:05.166Z,31.85
2022-08-05T19:26:35.367Z,32.08
2022-08-05T19:29:20.745Z,31.79
2022-08-05T19:32:03.259Z,31.95
2022-08-05T19:34:31.158Z,31.94
2022-08-05T19:36:57.747Z,32.35
2022-08-05T19:39:24.414Z,32.20
2022-08-05T19:42:06.330Z,32.28
2022-08-05T19:44:38.728Z,32.75
2022-08-05T19:50:42.282Z,33.57
2022-08-05T19:53:09.469Z,33.21
2022-08-05T19:56:15.439Z,33.58
2022-08-05T19:58:29.221Z,33.65
2022-08-05T20:00:56.605Z,33.03
2022-08-05T20:03:26.208Z,32.85
2022-08-05T20:05:56.808Z,32.77
2022-08-05T20:08:24.838Z,32.99
2022-08-05T20:10:52.817Z,33.20
2022-08-05T20:13:54.576Z,34.04
2022-08-05T20:16:06.553Z,33.81
2022-08-05T20:18:36.442Z,33.75
2022-08-05T20:21:18.941Z,33.64
2022-08-05T20:24:16.051Z,33.34
2022-08-05T20:27:03.088Z,33.00
2022-08-05T20:29:29.774Z,33.41
2022-08-05T20:31:58.327Z,33.41
2022-08-05T20:34:27.420Z,34.11
2022-08-05T20:36:54.535Z,33.63
2022-08-05T20:39:22.235Z,33.47
2022-08-05T20:41:57.839Z,33.78
2022-08-05T20:44:30.612Z,34.06
2022-08-05T20:47:03.103Z,34.21
2022-08-05T20:49:29.937Z,34.59
2022-08-05T20:52:05.059Z,34.33
2022-08-05T20:54:43.188Z,34.43
2022-08-05T20:58:05.017Z,34.03
2022-08-05T21:00:54.511Z,34.70
2022-08-05T21:03:23.479Z,34.77
2022-08-05T21:05:54.762Z,34.21
2022-08-05T21:08:41.375Z,34.06
2022-08-05T21:11:11.887Z,34.50
2022-08-05T21:13:56.439Z,34.01
2022-08-05T21:16:36.147Z,34.70
2022-08-05T21:19:03.807Z,34.64
2022-08-05T21:21:39.254Z,34.71
2022-08-05T21:24:12.696Z,34.75
2022-08-05T21:26:41.452Z,34.26
2022-08-05T21:29:12.616Z,34.42
2022-08-05T21:31:55.570Z,35.01
2022-08-05T21:34:35.381Z,34.40
2022-08-05T21:37:02.525Z,35.04
2022-08-05T21:39:29.672Z,35.72
2022-08-05T21:42:01.446Z,35.43
2022-08-05T21:44:29.972Z,35.70
2022-08-05T21:46:58.569Z,35.87
2022-08-05T21:49:58.859Z,36.48
2022-08-05T21:52:28.859Z,36.26
2022-08-05T21:54:57.349Z,35.68
2022-08-05T21:57:32.995Z,36.27
2022-08-05T22:00:06.327Z,36.31
2022-08-05T22:02:34.017Z,35.82
2022-08-05T22:11:17.748Z,36.24
2022-08-05T22:14:19.620Z,36.63
2022-08-05T22:16:51.543Z,36.92
2022-08-05T22:20:00.578Z,36.75
2022-08-05T22:22:04.814Z,36.19
2022-08-05T22:25:21.565Z,37.10
2022-08-05T22:28:10.808Z,37.06
2022-08-05T22:30:55.447Z,37.69
2022-08-05T22:33:57.168Z,37.71
2022-08-05T22:36:11.156Z,37.11
2022-08-05T22:38:42.533Z,36.93
2022-08-05T22:42:10.115Z,38.65
2022-08-05T22:47:30.127Z,37.80
2022-08-05T22:50:19.362Z,37.75
2022-08-05T22:52:49.690Z,37.55
2022-08-05T22:55:21.461Z,37.95
2022-08-05T22:57:49.981Z,37.75
2022-08-05T23:00:26.485Z,38.09
2022-08-05T23:02:54.151Z,38.71
2022-08-05T23:05:22.501Z,38.35
2022-08-05T23:07:50.450Z,37.74
2022-08-05T23:10:20.167Z,37.73
2022-08-05T23:12:51.162Z,37.64
2022-08-05T23:16:05.134Z,38.34
2022-08-05T23:18:50.771Z,38.30
2022-08-05T23:21:18.038Z,38.89
2022-08-05T23:23:44.862Z,39.14
2022-08-05T23:26:11.750Z,39.60
2022-08-05T23:28:38.329Z,39.24
2022-08-05T23:31:17.304Z,38.24
2022-08-05T23:34:06.756Z,39.24
2022-08-05T23:36:39.744Z,38.45
2022-08-05T23:39:16.300Z,39.86
2022-08-05T23:41:48.714Z,39.48
2022-08-05T23:44:16.723Z,39.77
2022-08-05T23:46:43.943Z,40.00
2022-08-05T23:49:36.685Z,39.54
2022-08-05T23:52:32.341Z,39.07
2022-08-05T23:55:09.227Z,39.57
2022-08-05T23:57:37.649Z,38.85
